Angler Guide Weather for Port Alberni -
Port Alberni, British Columbia Current Weather Conditions
Enter your "Place, State", US Zip Code or ICAO:  
Forecast Information Radar Information
Port Alberni, British Columbia, Canada  Lat: 49.30N, Lon: 124.93W
ICAO Used: CYAZ
Current Conditions
Updated:
Sun & Moon Information:
Temp: N/A
Humidity: N/A
Wind Speed: N/A
Barometer: N/A
Dewpoint: N/A
Heat Index: N/A
Wind Chill: N/A
Civil Twilight: 7:29 AM PST
Moonrise: 5:22 AM PST Moon Phase:
Waning Crescent Moon
Waning Crescent Moon
Moonset: 3:19 PM PST
Sunrise: 8:07 AM PST
Sunset: 4:20 PM PST
Civil Twilight: 4:58 PM PST
Forecast for Port Alberni, BC:
(Forecast based on TAF for )
0207 PM PST MON NOV 06 2006
  
AFTERNOONEVENINGOVERNIGHTMORNING
LIGHT RAINMISTMISTMIST
Light
Rain
MistMistMist
TAF based forecast:
Dated: 0207 PM PST MON NOV 06 2006
Afternoon...Overcast with mist with winds from the south west at 5 mph. Possible periods of overcast with light rain and mist.
Evening...Overcast with mist with winds from the south west at 5 mph.
Overnight...Overcast with mist with winds from the south west at 5 mph.
Morning...Overcast with mist with winds from the south west at 5 mph.
Original Encoded TAF:
Dated: 0207 PM PST MON NOV 06 2006
2006/11/06 22:07
CYAZ 062207Z 062201 23004KT 3/4SM BR OVC003 TEMPO 2201 5SM -RA BR SCT003 OVC015=




Powered by Angler Guide.com
Copyright 2007, all rights reserved.